createdAt,value
2022-11-17T00:01:38.933Z,14.50
2022-11-17T00:04:07.125Z,14.80
2022-11-17T00:06:35.404Z,14.60
2022-11-17T00:09:03.521Z,14.70
2022-11-17T00:11:51.650Z,12.50
2022-11-17T00:14:36.715Z,11.80
2022-11-17T00:17:07.760Z,12.50
2022-11-17T00:19:54.616Z,12.90
2022-11-17T00:22:23.743Z,13.50
2022-11-17T00:24:52.378Z,11.70
2022-11-17T00:27:20.543Z,14.40
2022-11-17T00:29:48.717Z,11.60
2022-11-17T00:32:36.917Z,12.50
2022-11-17T00:35:06.256Z,12.90
2022-11-17T00:37:37.746Z,12.40
2022-11-17T00:40:06.674Z,11.70
2022-11-17T00:42:34.896Z,12.20
2022-11-17T00:45:03.404Z,10.10
2022-11-17T00:47:35.728Z,12.00
2022-11-17T00:50:04.227Z,18.80
2022-11-17T00:52:32.383Z,11.00
2022-11-17T00:55:01.129Z,11.00
2022-11-17T00:57:29.476Z,9.80
2022-11-17T00:59:57.743Z,11.90
2022-11-17T01:02:25.645Z,11.70
2022-11-17T01:04:55.559Z,11.10
2022-11-17T01:07:23.517Z,12.00
2022-11-17T01:09:52.625Z,11.00
2022-11-17T01:12:21.735Z,11.70
2022-11-17T01:14:50.253Z,11.00
2022-11-17T01:17:18.712Z,10.90
2022-11-17T01:19:48.806Z,10.30
2022-11-17T01:22:18.043Z,11.30
2022-11-17T01:24:49.292Z,11.30
2022-11-17T01:27:17.367Z,11.10
2022-11-17T01:29:46.977Z,11.50
2022-11-17T01:32:15.103Z,10.40
2022-11-17T01:34:43.255Z,10.70
2022-11-17T01:37:20.369Z,10.60
2022-11-17T01:39:50.280Z,12.70
2022-11-17T01:42:22.779Z,11.40
2022-11-17T01:44:57.049Z,10.30
2022-11-17T01:47:43.080Z,10.40
2022-11-17T01:50:25.098Z,9.10
2022-11-17T01:52:57.607Z,12.00
2022-11-17T01:55:32.557Z,9.00
2022-11-17T01:58:07.477Z,9.20
2022-11-17T02:00:35.270Z,8.80
2022-11-17T02:03:07.110Z,10.50
2022-11-17T02:05:51.851Z,10.90
2022-11-17T02:08:22.275Z,10.20
2022-11-17T02:10:52.238Z,9.90
2022-11-17T02:13:23.672Z,10.00
2022-11-17T02:15:51.363Z,9.60
2022-11-17T02:18:19.516Z,9.90
2022-11-17T02:21:07.464Z,10.00
2022-11-17T02:24:08.607Z,10.40
2022-11-17T02:27:00.938Z,10.90
2022-11-17T02:29:37.916Z,10.50
2022-11-17T02:32:10.758Z,11.00
2022-11-17T02:34:47.830Z,12.00
2022-11-17T02:37:41.382Z,10.00
2022-11-17T02:40:13.706Z,10.80
2022-11-17T02:43:17.934Z,11.90
2022-11-17T02:45:54.387Z,9.60
2022-11-17T02:48:33.018Z,11.00
2022-11-17T02:51:02.806Z,10.40
2022-11-17T02:53:31.629Z,10.40
2022-11-17T02:56:01.872Z,10.40
2022-11-17T02:58:29.914Z,11.00
2022-11-17T03:01:25.009Z,11.10
2022-11-17T03:04:21.634Z,10.60
2022-11-17T03:07:06.681Z,10.30
2022-11-17T03:09:47.922Z,11.80
2022-11-17T03:12:26.631Z,11.50
2022-11-17T03:14:54.715Z,12.80
2022-11-17T03:17:30.492Z,12.10
2022-11-17T03:20:13.430Z,11.90
2022-11-17T03:23:10.048Z,13.50
2022-11-17T03:25:39.944Z,12.30
2022-11-17T03:28:11.143Z,13.40
2022-11-17T03:30:43.801Z,12.60
2022-11-17T03:33:16.085Z,13.10
2022-11-17T03:35:53.113Z,13.20
2022-11-17T03:38:25.186Z,12.80
2022-11-17T03:40:56.161Z,12.30
2022-11-17T03:43:26.582Z,13.20
2022-11-17T03:46:00.502Z,15.30
2022-11-17T03:48:37.313Z,14.50
2022-11-17T03:51:11.638Z,13.60
2022-11-17T03:53:39.705Z,14.40
2022-11-17T03:56:16.484Z,14.80
2022-11-17T03:58:54.259Z,14.90
2022-11-17T04:01:23.325Z,12.60
2022-11-17T04:03:51.924Z,14.90
2022-11-17T04:06:19.687Z,14.90
2022-11-17T04:08:47.866Z,16.40
2022-11-17T04:11:34.638Z,15.70
2022-11-17T04:14:21.508Z,15.30
2022-11-17T04:16:49.578Z,13.90
2022-11-17T04:19:17.400Z,15.10
2022-11-17T04:21:45.168Z,16.90
2022-11-17T04:24:13.071Z,14.60
2022-11-17T04:26:59.556Z,14.50
2022-11-17T04:29:28.508Z,15.20
2022-11-17T04:31:56.388Z,15.30
2022-11-17T04:34:24.203Z,13.70
2022-11-17T04:36:51.982Z,17.20
2022-11-17T04:39:20.161Z,15.50
2022-11-17T04:41:53.941Z,17.20
2022-11-17T04:44:25.009Z,14.60
2022-11-17T04:46:53.729Z,15.50
2022-11-17T04:49:22.805Z,14.50
2022-11-17T04:51:51.717Z,14.20
2022-11-17T04:54:21.764Z,12.90
2022-11-17T04:56:50.840Z,14.90
2022-11-17T05:01:47.070Z,14.50
2022-11-17T05:04:39.944Z,13.30
2022-11-17T05:07:09.234Z,12.50
2022-11-17T05:09:37.076Z,14.20
2022-11-17T05:12:23.675Z,13.90
2022-11-17T05:14:52.412Z,12.70
2022-11-17T05:17:20.226Z,14.00
2022-11-17T05:19:48.642Z,12.90
2022-11-17T05:22:40.998Z,13.00
2022-11-17T05:25:09.710Z,13.60
2022-11-17T05:27:38.223Z,13.90
2022-11-17T05:30:08.321Z,12.30
2022-11-17T05:32:36.030Z,15.50
2022-11-17T05:35:04.164Z,13.20
2022-11-17T05:37:31.896Z,14.00
2022-11-17T05:39:59.736Z,12.90
2022-11-17T05:42:27.653Z,12.30
2022-11-17T05:44:55.371Z,14.00
2022-11-17T05:47:23.101Z,12.80
2022-11-17T05:49:51.033Z,12.20
2022-11-17T05:52:18.701Z,12.30
2022-11-17T05:54:46.495Z,13.00
2022-11-17T05:57:21.260Z,12.50
2022-11-17T05:59:54.540Z,12.90
2022-11-17T06:02:29.043Z,10.20
2022-11-17T06:04:56.911Z,12.50
2022-11-17T06:07:24.954Z,11.60
2022-11-17T06:09:53.374Z,13.40
2022-11-17T06:12:21.193Z,11.80
2022-11-17T06:14:49.266Z,12.10
2022-11-17T06:17:30.242Z,13.30
2022-11-17T06:20:08.306Z,11.80
2022-11-17T06:22:36.731Z,12.20
2022-11-17T06:25:07.803Z,13.80
2022-11-17T06:27:37.901Z,12.10
2022-11-17T06:30:06.563Z,12.20
2022-11-17T06:32:36.707Z,13.40
2022-11-17T06:35:07.824Z,12.30
2022-11-17T06:37:35.707Z,12.40
2022-11-17T06:40:04.223Z,12.10
2022-11-17T06:42:50.437Z,12.60
2022-11-17T06:45:18.258Z,11.70
2022-11-17T06:47:45.915Z,13.90
2022-11-17T06:50:13.909Z,14.00
2022-11-17T06:52:42.281Z,10.60
2022-11-17T06:55:11.033Z,13.10
2022-11-17T06:57:38.803Z,13.00
2022-11-17T07:00:07.656Z,12.40
2022-11-17T07:02:40.154Z,11.30
2022-11-17T07:05:11.702Z,12.60
2022-11-17T07:07:51.152Z,11.00
2022-11-17T07:13:31.201Z,13.70
2022-11-17T07:16:08.145Z,12.40
2022-11-17T07:18:37.768Z,13.40
2022-11-17T07:21:18.200Z,10.90
2022-11-17T07:23:53.193Z,12.40
2022-11-17T07:26:22.253Z,11.50
2022-11-17T07:28:50.100Z,11.30
2022-11-17T07:31:18.200Z,12.30
2022-11-17T07:33:46.221Z,11.50
2022-11-17T07:36:15.369Z,11.60
2022-11-17T07:38:58.018Z,11.40
2022-11-17T07:41:26.267Z,9.90
2022-11-17T07:43:58.041Z,11.00
2022-11-17T07:47:00.673Z,12.30
2022-11-17T07:49:32.581Z,9.40
2022-11-17T07:52:06.371Z,11.30
2022-11-17T07:54:34.193Z,10.20
2022-11-17T07:57:02.525Z,8.90
2022-11-17T07:59:32.361Z,9.70
2022-11-17T08:02:06.406Z,9.20
2022-11-17T08:05:07.329Z,9.40
2022-11-17T08:07:54.325Z,11.20
2022-11-17T08:10:23.113Z,9.90
2022-11-17T08:12:56.186Z,12.10
2022-11-17T08:15:55.700Z,9.60
2022-11-17T08:18:31.861Z,8.90
2022-11-17T08:21:15.000Z,7.40
2022-11-17T08:23:44.725Z,8.50
2022-11-17T08:26:13.441Z,10.70
2022-11-17T08:29:11.437Z,9.70
2022-11-17T08:31:46.702Z,8.40
2022-11-17T08:34:17.643Z,10.00
2022-11-17T08:36:46.798Z,10.80
2022-11-17T08:41:43.741Z,9.60
2022-11-17T08:44:11.652Z,10.70
2022-11-17T08:46:53.434Z,11.10
2022-11-17T08:49:23.194Z,10.10
2022-11-17T08:51:53.284Z,10.30
2022-11-17T08:54:33.503Z,8.70
2022-11-17T08:57:01.501Z,9.10
2022-11-17T08:59:35.430Z,12.40
2022-11-17T09:02:03.481Z,11.70
2022-11-17T09:04:31.380Z,9.30
2022-11-17T09:07:02.161Z,10.90
2022-11-17T09:09:37.364Z,10.30
2022-11-17T09:12:20.446Z,9.40
2022-11-17T09:15:05.115Z,10.40
2022-11-17T09:17:33.535Z,8.40
2022-11-17T09:20:01.938Z,7.70
2022-11-17T09:22:31.798Z,8.70
2022-11-17T09:24:59.985Z,8.70
2022-11-17T09:27:28.289Z,8.20
2022-11-17T09:29:56.758Z,8.20
2022-11-17T09:32:25.019Z,7.90
2022-11-17T09:34:56.639Z,9.30
2022-11-17T09:37:30.195Z,8.40
2022-11-17T09:40:04.576Z,9.60
2022-11-17T09:42:40.287Z,9.90
2022-11-17T09:45:23.779Z,7.50
2022-11-17T09:48:40.226Z,6.80
2022-11-17T09:51:21.223Z,7.90
2022-11-17T09:54:44.577Z,7.30
2022-11-17T09:57:39.187Z,7.10
2022-11-17T10:00:14.376Z,8.90
2022-11-17T10:02:43.317Z,7.10
2022-11-17T10:05:15.611Z,8.10
2022-11-17T10:07:54.579Z,8.70
2022-11-17T10:10:39.189Z,7.70
2022-11-17T10:13:28.749Z,7.20
2022-11-17T10:16:20.525Z,8.30
2022-11-17T10:18:57.243Z,7.60
2022-11-17T10:21:32.112Z,10.90
2022-11-17T10:24:36.935Z,7.70
2022-11-17T10:27:19.427Z,8.80
2022-11-17T10:30:20.484Z,7.70
2022-11-17T10:36:30.235Z,7.50
2022-11-17T10:39:00.776Z,8.60
2022-11-17T10:41:32.844Z,9.60
2022-11-17T10:44:17.116Z,11.30
2022-11-17T10:47:04.497Z,7.60
2022-11-17T10:49:41.479Z,6.60
2022-11-17T10:52:34.751Z,6.40
2022-11-17T10:55:26.643Z,7.10
2022-11-17T10:57:59.518Z,6.20
2022-11-17T11:00:37.681Z,7.60
2022-11-17T11:03:18.638Z,7.70
2022-11-17T11:06:28.226Z,8.00
2022-11-17T11:09:15.415Z,6.60
2022-11-17T11:12:02.105Z,6.00
2022-11-17T11:15:00.549Z,5.60
2022-11-17T11:17:37.056Z,8.20
2022-11-17T11:20:40.922Z,8.00
2022-11-17T11:23:41.717Z,6.00
2022-11-17T11:27:27.802Z,6.80
2022-11-17T11:30:03.218Z,6.20
2022-11-17T11:33:07.675Z,5.80
2022-11-17T11:36:15.999Z,6.10
2022-11-17T11:39:15.151Z,6.90
2022-11-17T11:42:24.427Z,6.80
2022-11-17T11:48:05.353Z,7.90
2022-11-17T11:50:49.462Z,7.40
2022-11-17T11:53:51.751Z,6.50
2022-11-17T11:56:44.292Z,5.70
2022-11-17T11:59:48.407Z,7.00
2022-11-17T12:02:28.096Z,6.90
2022-11-17T12:05:05.417Z,6.30
2022-11-17T12:08:10.195Z,7.50
2022-11-17T12:10:59.490Z,7.30
2022-11-17T12:13:28.574Z,7.40
2022-11-17T12:16:29.152Z,8.20
2022-11-17T12:18:57.031Z,7.00
2022-11-17T12:21:26.677Z,7.70
2022-11-17T12:24:01.056Z,7.10
2022-11-17T12:26:44.033Z,7.30
2022-11-17T12:29:19.534Z,7.80
2022-11-17T12:31:52.110Z,7.00
2022-11-17T12:34:26.323Z,6.30
2022-11-17T12:37:13.277Z,8.90
2022-11-17T12:40:05.051Z,6.80
2022-11-17T12:43:23.352Z,9.50
2022-11-17T12:46:30.602Z,8.20
2022-11-17T12:49:41.672Z,7.90
2022-11-17T12:52:18.061Z,6.40
2022-11-17T12:55:01.273Z,7.50
2022-11-17T12:57:33.084Z,9.00
2022-11-17T13:00:20.758Z,8.50
2022-11-17T13:02:59.481Z,7.10
2022-11-17T13:05:30.212Z,8.40
2022-11-17T13:08:20.517Z,8.00
2022-11-17T13:10:50.801Z,6.30
2022-11-17T13:13:26.838Z,6.50
2022-11-17T13:15:58.813Z,8.10
2022-11-17T13:18:34.020Z,6.70
2022-11-17T13:21:02.863Z,7.60
2022-11-17T13:23:34.615Z,7.40
2022-11-17T13:26:21.511Z,8.00
2022-11-17T13:29:09.573Z,8.00
2022-11-17T13:34:07.037Z,9.50
2022-11-17T13:36:35.586Z,8.50
2022-11-17T13:39:04.053Z,8.20
2022-11-17T13:41:38.842Z,7.90
2022-11-17T13:44:14.640Z,6.80
2022-11-17T13:46:43.910Z,6.90
2022-11-17T13:49:39.246Z,8.40
2022-11-17T13:52:35.262Z,7.40
2022-11-17T13:55:13.866Z,7.70
2022-11-17T13:57:54.405Z,9.30
2022-11-17T14:00:22.713Z,8.60
2022-11-17T14:02:58.533Z,8.20
2022-11-17T14:05:28.451Z,8.10
2022-11-17T14:07:58.512Z,6.80
2022-11-17T14:10:34.366Z,6.30
2022-11-17T14:13:02.309Z,7.60
2022-11-17T14:15:34.559Z,8.50
2022-11-17T14:18:24.457Z,9.10
2022-11-17T14:23:36.047Z,8.80
2022-11-17T14:26:05.130Z,7.00
2022-11-17T14:28:33.987Z,7.80
2022-11-17T14:31:02.161Z,9.20
2022-11-17T14:33:29.993Z,7.10
2022-11-17T14:36:01.876Z,8.00
2022-11-17T14:38:30.181Z,9.40
2022-11-17T14:40:58.112Z,9.50
2022-11-17T14:43:26.901Z,7.90
2022-11-17T14:45:56.015Z,7.30
2022-11-17T14:48:23.916Z,8.20
2022-11-17T14:50:57.589Z,8.10
2022-11-17T14:53:26.096Z,8.70
2022-11-17T14:55:53.915Z,7.30
2022-11-17T14:58:21.834Z,8.60
2022-11-17T15:00:50.142Z,8.70
2022-11-17T15:03:18.078Z,9.80
2022-11-17T15:05:46.221Z,7.90
2022-11-17T15:08:14.662Z,7.70
2022-11-17T15:10:44.270Z,8.30
2022-11-17T15:13:12.355Z,11.60
2022-11-17T15:15:40.404Z,8.50
2022-11-17T15:18:12.329Z,10.50
2022-11-17T15:20:40.252Z,11.50
2022-11-17T15:23:08.351Z,10.50
2022-11-17T15:25:38.856Z,8.90
2022-11-17T15:28:07.337Z,8.50
2022-11-17T15:30:35.321Z,9.70
2022-11-17T15:33:03.207Z,11.20
2022-11-17T15:35:30.942Z,11.00
2022-11-17T15:37:58.923Z,9.60
2022-11-17T15:40:26.742Z,9.20
2022-11-17T15:42:54.889Z,9.20
2022-11-17T15:45:22.802Z,8.00
2022-11-17T15:47:50.520Z,9.10
2022-11-17T15:50:19.779Z,8.20
2022-11-17T15:53:03.592Z,7.50
2022-11-17T15:55:34.664Z,9.10
2022-11-17T15:58:02.468Z,10.10
2022-11-17T16:00:33.182Z,9.50
2022-11-17T16:03:01.040Z,9.80
2022-11-17T16:05:29.407Z,9.70
2022-11-17T16:07:57.186Z,8.20
2022-11-17T16:10:24.973Z,10.00
2022-11-17T16:12:53.056Z,11.30
2022-11-17T16:15:20.742Z,10.00
2022-11-17T16:17:48.526Z,10.30
2022-11-17T16:20:16.570Z,11.20
2022-11-17T16:22:44.269Z,11.50
2022-11-17T16:25:12.224Z,11.40
2022-11-17T16:27:40.058Z,8.40
2022-11-17T16:30:08.367Z,9.00
2022-11-17T16:32:36.164Z,11.00
2022-11-17T16:35:05.407Z,9.90
2022-11-17T16:37:34.330Z,8.60
2022-11-17T16:40:02.114Z,9.50
2022-11-17T16:42:32.467Z,8.30
2022-11-17T16:45:00.713Z,10.40
2022-11-17T16:47:28.704Z,9.90
2022-11-17T16:49:56.760Z,9.60
2022-11-17T16:52:24.406Z,10.30
2022-11-17T16:54:52.178Z,8.20
2022-11-17T16:57:20.042Z,14.90
2022-11-17T16:59:48.270Z,8.70
2022-11-17T17:02:15.921Z,11.10
2022-11-17T17:04:44.036Z,9.70
2022-11-17T17:07:11.782Z,9.40
2022-11-17T17:09:39.689Z,10.50
2022-11-17T17:12:07.680Z,10.40
2022-11-17T17:14:35.419Z,8.80
2022-11-17T17:17:03.179Z,9.50
2022-11-17T17:19:31.268Z,10.50
2022-11-17T17:21:59.179Z,12.40
2022-11-17T17:24:27.102Z,9.70
2022-11-17T17:26:54.879Z,10.80
2022-11-17T17:29:22.575Z,12.80
2022-11-17T17:31:50.242Z,11.00
2022-11-17T17:34:18.159Z,11.00
2022-11-17T17:36:45.938Z,13.40
2022-11-17T17:39:15.684Z,11.30
2022-11-17T17:41:44.574Z,10.00
2022-11-17T17:44:17.207Z,10.60
2022-11-17T17:46:45.859Z,10.10
2022-11-17T17:49:13.907Z,7.70
2022-11-17T17:51:44.424Z,9.20
2022-11-17T17:54:17.574Z,8.70
2022-11-17T17:56:46.350Z,8.00
2022-11-17T17:59:15.918Z,7.70
2022-11-17T18:01:46.092Z,8.60
2022-11-17T18:04:16.164Z,9.10
2022-11-17T18:06:49.017Z,7.80
2022-11-17T18:09:19.485Z,7.90
2022-11-17T18:11:50.991Z,9.20
2022-11-17T18:14:24.477Z,9.40
2022-11-17T18:16:53.938Z,9.00
2022-11-17T18:19:22.267Z,8.60
2022-11-17T18:21:50.341Z,8.50
2022-11-17T18:24:18.235Z,11.40
2022-11-17T18:26:45.944Z,8.90
2022-11-17T18:29:18.814Z,7.80
2022-11-17T18:31:47.661Z,8.80
2022-11-17T18:34:21.329Z,7.80
2022-11-17T18:36:51.695Z,8.00
2022-11-17T18:39:19.834Z,8.00
2022-11-17T18:41:48.160Z,7.40
2022-11-17T18:44:18.489Z,9.70
2022-11-17T18:46:46.840Z,6.50
2022-11-17T18:51:44.229Z,8.00
2022-11-17T18:54:13.834Z,8.40
2022-11-17T18:56:42.492Z,8.90
2022-11-17T18:59:13.815Z,7.80
2022-11-17T19:01:43.302Z,6.90
2022-11-17T19:04:14.016Z,9.20
2022-11-17T19:06:42.069Z,9.60
2022-11-17T19:09:10.118Z,10.60
2022-11-17T19:11:37.866Z,12.80
2022-11-17T19:14:05.741Z,12.80
2022-11-17T19:16:42.503Z,9.70
2022-11-17T19:19:13.820Z,10.40
2022-11-17T19:21:42.897Z,11.30
2022-11-17T19:24:10.907Z,12.80
2022-11-17T19:26:38.892Z,11.60
2022-11-17T19:29:15.535Z,10.50
2022-11-17T19:31:45.199Z,12.20
2022-11-17T19:34:13.759Z,11.30
2022-11-17T19:36:41.573Z,10.20
2022-11-17T19:39:11.653Z,10.00
2022-11-17T19:41:42.510Z,11.10
2022-11-17T19:44:10.465Z,11.50
2022-11-17T19:46:39.065Z,9.20
2022-11-17T19:49:07.657Z,10.90
2022-11-17T19:51:41.116Z,11.30
2022-11-17T19:54:10.145Z,11.20
2022-11-17T19:56:38.503Z,12.90
2022-11-17T19:59:07.656Z,10.90
2022-11-17T20:01:37.884Z,11.80
2022-11-17T20:04:07.476Z,10.50
2022-11-17T20:06:37.651Z,10.00
2022-11-17T20:09:08.153Z,11.50
2022-11-17T20:11:36.324Z,8.90
2022-11-17T20:14:04.211Z,10.30
2022-11-17T20:16:32.156Z,10.20
2022-11-17T20:19:02.042Z,11.90
2022-11-17T20:21:31.040Z,11.40
2022-11-17T20:23:59.324Z,11.20
2022-11-17T20:26:29.856Z,10.90
2022-11-17T20:28:59.254Z,10.90
2022-11-17T20:34:01.565Z,12.10
2022-11-17T20:36:31.109Z,11.70
2022-11-17T20:39:01.557Z,10.40
2022-11-17T20:41:29.835Z,9.30
2022-11-17T20:43:59.068Z,11.80
2022-11-17T20:46:27.456Z,10.90
2022-11-17T20:48:55.363Z,11.30
2022-11-17T20:51:24.726Z,11.60
2022-11-17T20:53:52.726Z,12.10
2022-11-17T20:56:21.128Z,11.60
2022-11-17T20:58:49.042Z,10.00
2022-11-17T21:01:20.124Z,11.30
2022-11-17T21:03:48.075Z,11.00
2022-11-17T21:06:16.338Z,9.70
2022-11-17T21:08:45.427Z,11.20
2022-11-17T21:11:36.678Z,10.30
2022-11-17T21:14:06.389Z,8.00
2022-11-17T21:16:34.625Z,9.70
2022-11-17T21:19:02.312Z,10.70
2022-11-17T21:21:31.061Z,12.30
2022-11-17T21:23:59.037Z,11.10
2022-11-17T21:26:28.053Z,10.90
2022-11-17T21:28:59.342Z,11.70
2022-11-17T21:31:31.401Z,9.40
2022-11-17T21:36:30.115Z,12.30
2022-11-17T21:38:58.219Z,10.20
2022-11-17T21:41:31.179Z,11.20
2022-11-17T21:44:00.541Z,11.80
2022-11-17T21:46:31.309Z,12.40
2022-11-17T21:49:00.540Z,14.80
2022-11-17T21:51:34.948Z,12.90
2022-11-17T21:54:06.122Z,11.40
2022-11-17T21:56:34.315Z,16.00
2022-11-17T21:59:04.887Z,12.10
2022-11-17T22:01:34.022Z,14.90
2022-11-17T22:04:02.420Z,13.80
2022-11-17T22:06:30.439Z,15.50
2022-11-17T22:08:59.141Z,12.90
2022-11-17T22:11:36.351Z,14.60
2022-11-17T22:14:15.204Z,13.60
2022-11-17T22:16:48.841Z,13.30
2022-11-17T22:19:17.946Z,14.50
2022-11-17T22:21:49.192Z,13.50
2022-11-17T22:24:17.464Z,13.60
2022-11-17T22:26:45.474Z,12.80
2022-11-17T22:29:19.162Z,15.30
2022-11-17T22:31:48.929Z,13.80
2022-11-17T22:34:18.517Z,12.00
2022-11-17T22:36:46.227Z,14.70
2022-11-17T22:39:15.889Z,15.00
2022-11-17T22:41:44.046Z,13.30
2022-11-17T22:44:15.740Z,11.80
2022-11-17T22:46:43.990Z,16.80
2022-11-17T22:49:12.793Z,13.30
2022-11-17T22:51:59.052Z,14.40
2022-11-17T22:54:27.173Z,12.10
2022-11-17T22:56:54.912Z,12.80
2022-11-17T22:59:24.095Z,12.00
2022-11-17T23:04:20.041Z,12.50
2022-11-17T23:06:47.758Z,15.00
2022-11-17T23:09:16.037Z,12.50
2022-11-17T23:11:44.141Z,12.60
2022-11-17T23:14:14.398Z,11.00
2022-11-17T23:16:42.421Z,12.20
2022-11-17T23:19:14.294Z,10.40
2022-11-17T23:21:42.168Z,11.70
2022-11-17T23:24:12.716Z,11.60
2022-11-17T23:26:42.102Z,12.60
2022-11-17T23:29:10.180Z,10.20
2022-11-17T23:31:38.149Z,13.00
2022-11-17T23:34:08.986Z,10.40
2022-11-17T23:36:36.798Z,11.40
2022-11-17T23:39:04.908Z,11.80
2022-11-17T23:41:32.798Z,13.70
2022-11-17T23:44:00.680Z,10.10
2022-11-17T23:46:28.877Z,11.60
2022-11-17T23:48:57.233Z,11.80
2022-11-17T23:51:26.933Z,12.00
2022-11-17T23:53:55.263Z,11.80
2022-11-17T23:56:23.535Z,12.00
2022-11-17T23:58:52.316Z,9.50
